Portada
METAR-TAF:

METAR-TAF

Aeroports :

Buochs, Suïssa

latitud: 46-58-28N, longitud: 8-23-49E, altitud: 449 m

Observació

L'informe es va fer fa 19 minuts, a les 00:20 UTC
Vent 3 kt del Oest/Sud-Oest
Temperatura 19°C
Humitat 88%
Pressió 1021 hPa
Visibilitat 10 km o més
sense núvols per sota de 1500 mi sense presència de cumulonimbus.

METAR: LSZC 190020Z AUTO 25003KT CAVOK 19/17 Q1021

Hora: 02:39 (00:39 UTC)

Pronòstic

L'informe es va fer fa 10 hores i 14 minuts, a les 14:25 UTC
Pronòstic vàlid del 18 a les 15 UTC al 18 a les 24 UTC
Vent 2 kt amb direcció variable
Visibilitat 10 km o més
sense núvols per sota de 1500 mi sense presència de cumulonimbus.
Temporalment
l' 18 a les 15 UTC al 18 a les 18 UTC
Visibilitat 10 km o més
Escasses núvols a una alçada de 5000 ft

TAF: LSZC 181425Z 1815/1824 VRB02KT CAVOK TEMPO 1815/1818 9999 FEW050

Observacions i pronòstics meteorològics de més de 4000 aeroports (METAR i TAF).

Les estacions disponibles són els punts grocs i vermells al mapa.

Posi el ratolí al punt desitjat per veure el nom de l'estació.

Feu clic per veure les observacions i els pronòstics meteorològics.

Per canviar el mapa: feu clic els botons verds amb una creu de color negre per apropar; al botó verd amb un guió per allunyar la imatge; o en les fletxes verdes per a mapes adjacents.


METAR-TAF: